Pagrindinis puslapis
METAR-TAF:

METAR-TAF

Oro uostai :

Patna, Indija

platuma: 25-36N, ilguma: 085-06E, Aukštis: 51 m

Dabartinis oras

Ataskaita buvo paskelbta 32 minutes, ne 11:00 UTC
Vėjas 4 kt iš Vakarų
Temperatūra 20°C
Drėgmė 53%
Slėgis 1013 hPa
Matomumas: 4500 m
migla

METAR: VEPT 251100Z 28004KT 4500 HZ NSC 20/10 Q1013 NOSIG

Laikas: 17:02 (11:32 UTC)

Prognozė

Ataskaita buvo paskelbta 3 valandos ir 32 minutes, ne 08:00 UTC
Prognozė galioja nuo 25 metu 09 UTC su 25 metu 18 UTC
Vėjas 5 kt iš Vakarų
Matomumas: 5000 m
migla
Tapsmas
nuo 25 metu 15 UTC su 25 metu 17 UTC
Vėjas kt iš Šiaurės
Matomumas: 2500 m
rūkana, migla

TAF: VEPT 250800Z 2509/2518 28005KT 5000 HZ NSC BECMG 2515/2517 00000KT 2500 BR HZ

Orai ataskaitas ir orų prognozės (METAR, TAF).

turimą stotys yra geltonos ir raudonos taškus žemėlapyje.

Perkelti pele per norėdami pamatyti stoties vardą.

Tada spustelėkite, norėdami matyti oro stebėjimo ir prognozės.

Norėdami pakeisti žemėlapį: spustelėkite ant žalios mygtukų su juodo kryžiaus žemyn,; žalią mygtuką su brūkšneliu, jei norite nutolinti; arba žalių rodyklių gretimoms žemėlapius.


METAR-TAF: